Friday, November 24, 2017, 8:14 AM EST
Back to Local

KAVP, Wilkes-barre/scranton International

Location: Pittston, PA, United States Lat: 41.333
Local Time: 8:14 AM EST (13:14 GMT) Lon: -75.733
Time Zone: US/Eastern Elev: 961 ft

Show me the last for .
Show Decoded

2017-11-24 07:54 METAR KAVP 241254Z 00000KT 10SM CLR 00/M04 A3002 RMK AO2 SLP173 T00001044 =
2017-11-24 06:54 METAR KAVP 241154Z 00000KT 10SM CLR M01/M06 A3002 RMK AO2 SLP173 T10111061 10000
                 21028 53006 =
2017-11-24 05:54 METAR KAVP 241054Z 00000KT 10SM CLR M02/M05 A3001 RMK AO2 SLP171 T10171050 =
2017-11-24 04:54 METAR KAVP 240954Z 00000KT 10SM SCT055 M01/M05 A2999 RMK AO2 SLP164 T10111050 =
2017-11-24 03:54 METAR KAVP 240854Z 00000KT 10SM OVC055 00/M05 A3000 RMK AO2 SLP165 T00001050
                 58000 =
2017-11-24 02:54 METAR KAVP 240754Z 00000KT 10SM OVC060 M01/M04 A3001 RMK AO2 SLP169 T10061044 =
2017-11-24 01:54 METAR KAVP 240654Z 24003KT 10SM OVC060 M01/M05 A3000 RMK AO2 SLP167 T10061050 =
2017-11-24 00:54 METAR KAVP 240554Z 20003KT 10SM CLR M02/M06 A3000 RMK AO2 SLP165 T10171056 10000
                 21022 58001 =
2017-11-23 23:54 METAR KAVP 240454Z 00000KT 10SM OVC070 M01/M05 A3000 RMK AO2 SLP166 T10111050
                 400391033 =
2017-11-23 22:54 METAR KAVP 240354Z 00000KT 10SM OVC065 M01/M05 A3001 RMK AO2 SLP169 T10111050 =
2017-11-23 21:54 METAR KAVP 240254Z 00000KT 10SM BKN095 M02/M06 A3000 RMK AO2 SLP167 T10171061
                 56000 =
2017-11-23 20:54 METAR KAVP 240154Z 00000KT 10SM OVC095 M01/M06 A3001 RMK AO2 SLP168 T10061056 =
2017-11-23 19:54 METAR KAVP 240054Z 00000KT 10SM OVC095 00/M06 A3000 RMK AO2 SLP165 T00001061 =
2017-11-23 18:54 METAR KAVP 232354Z 00000KT 10SM BKN100 M01/M06 A3000 RMK AO2 SLP169 T10111061
                 10039 21011 55000 =
2017-11-23 17:54 METAR KAVP 232254Z 00000KT 10SM CLR M01/M06 A3000 RMK AO2 SLP166 T10061061 =
2017-11-23 16:54 METAR KAVP 232154Z 00000KT 10SM BKN095 01/M06 A3000 RMK AO2 SLP167 T00111056 =
2017-11-23 15:54 METAR KAVP 232054Z 00000KT 10SM OVC095 02/M07 A3001 RMK AO2 SLP168 T00171067
                 55013 =
2017-11-23 14:54 METAR KAVP 231954Z 29007KT 10SM CLR 02/M07 A3000 RMK AO2 SLP166 T00221067 =
2017-11-23 13:54 METAR KAVP 231854Z 34004KT 10SM CLR 02/M07 A3002 RMK AO2 SLP172 T00221067 =
2017-11-23 12:54 METAR KAVP 231754Z 34005KT 10SM CLR 03/M07 A3005 RMK AO2 SLP181 T00331067 10039
                 21022 58025 =
2017-11-23 11:54 METAR KAVP 231654Z VRB03KT 10SM CLR 01/M07 A3008 RMK AO2 SLP195 T00111072 =
2017-11-23 10:54 METAR KAVP 231554Z 28007KT 10SM BKN031 00/M07 A3011 RMK AO2 SLP204 T00001072 =
2017-11-23 09:54 METAR KAVP 231454Z 34010KT 10SM SCT028 01/M07 A3012 RMK AO2 SLP208 T00061072
                 50006 =
2017-11-23 08:54 METAR KAVP 231354Z 32006KT 10SM OVC028 M01/M08 A3012 RMK AO2 SLP208 T10111078 =

Support USWX by starting your Amazon purchase here.